sensor_id;sensor_type;location;lat;lon;timestamp;temperature;humidity
33837;DHT22;20140;49.356;8.812;2023-03-25T00:01:30;9.40;99.90
33837;DHT22;20140;49.356;8.812;2023-03-25T00:03:58;9.30;99.90
33837;DHT22;20140;49.356;8.812;2023-03-25T00:06:29;9.30;99.90
33837;DHT22;20140;49.356;8.812;2023-03-25T00:08:54;9.30;99.90
33837;DHT22;20140;49.356;8.812;2023-03-25T00:11:21;9.30;99.90
33837;DHT22;20140;49.356;8.812;2023-03-25T00:13:46;9.30;99.90
33837;DHT22;20140;49.356;8.812;2023-03-25T00:16:19;9.30;99.90
33837;DHT22;20140;49.356;8.812;2023-03-25T00:18:45;9.20;99.90
33837;DHT22;20140;49.356;8.812;2023-03-25T00:21:12;9.20;99.90
33837;DHT22;20140;49.356;8.812;2023-03-25T00:23:39;9.20;99.90
33837;DHT22;20140;49.356;8.812;2023-03-25T00:26:06;9.20;99.90
33837;DHT22;20140;49.356;8.812;2023-03-25T00:28:33;9.20;99.90
33837;DHT22;20140;49.356;8.812;2023-03-25T00:31:02;9.10;99.90
33837;DHT22;20140;49.356;8.812;2023-03-25T00:33:28;9.10;99.90
33837;DHT22;20140;49.356;8.812;2023-03-25T00:35:55;9.10;99.90
33837;DHT22;20140;49.356;8.812;2023-03-25T00:38:28;9.10;99.90
33837;DHT22;20140;49.356;8.812;2023-03-25T00:41:15;9.00;99.90
33837;DHT22;20140;49.356;8.812;2023-03-25T00:43:50;9.00;99.90
33837;DHT22;20140;49.356;8.812;2023-03-25T00:46:16;9.00;99.90
33837;DHT22;20140;49.356;8.812;2023-03-25T00:48:42;9.00;99.90
33837;DHT22;20140;49.356;8.812;2023-03-25T00:51:08;9.00;99.90
33837;DHT22;20140;49.356;8.812;2023-03-25T00:53:35;8.90;99.90
33837;DHT22;20140;49.356;8.812;2023-03-25T00:56:02;8.90;99.90
33837;DHT22;20140;49.356;8.812;2023-03-25T00:58:28;8.90;99.90
33837;DHT22;20140;49.356;8.812;2023-03-25T01:00:54;8.80;99.90
33837;DHT22;20140;49.356;8.812;2023-03-25T01:03:22;8.80;99.90
33837;DHT22;20140;49.356;8.812;2023-03-25T01:05:49;8.80;99.90
33837;DHT22;20140;49.356;8.812;2023-03-25T01:08:14;8.80;99.90
33837;DHT22;20140;49.356;8.812;2023-03-25T01:10:42;8.90;99.90
33837;DHT22;20140;49.356;8.812;2023-03-25T01:13:08;8.80;99.90
33837;DHT22;20140;49.356;8.812;2023-03-25T01:15:33;8.90;99.90
33837;DHT22;20140;49.356;8.812;2023-03-25T01:17:59;8.90;99.90
33837;DHT22;20140;49.356;8.812;2023-03-25T01:20:24;9.00;99.90
33837;DHT22;20140;49.356;8.812;2023-03-25T01:22:51;9.00;99.90
33837;DHT22;20140;49.356;8.812;2023-03-25T01:25:16;9.00;99.90
33837;DHT22;20140;49.356;8.812;2023-03-25T01:27:42;8.90;99.90
33837;DHT22;20140;49.356;8.812;2023-03-25T01:30:08;9.00;99.90
33837;DHT22;20140;49.356;8.812;2023-03-25T01:32:34;9.00;99.90
33837;DHT22;20140;49.356;8.812;2023-03-25T01:34:59;8.90;99.90
33837;DHT22;20140;49.356;8.812;2023-03-25T01:37:25;9.00;99.90
33837;DHT22;20140;49.356;8.812;2023-03-25T01:39:51;8.90;99.90
33837;DHT22;20140;49.356;8.812;2023-03-25T01:42:17;8.90;99.90
33837;DHT22;20140;49.356;8.812;2023-03-25T01:47:08;9.00;99.90
33837;DHT22;20140;49.356;8.812;2023-03-25T01:49:38;9.00;99.90
33837;DHT22;20140;49.356;8.812;2023-03-25T01:52:17;9.00;99.90
33837;DHT22;20140;49.356;8.812;2023-03-25T01:54:45;9.00;99.90
33837;DHT22;20140;49.356;8.812;2023-03-25T01:57:13;9.00;99.90
33837;DHT22;20140;49.356;8.812;2023-03-25T01:59:42;9.00;99.90
33837;DHT22;20140;49.356;8.812;2023-03-25T02:02:08;8.90;99.90
33837;DHT22;20140;49.356;8.812;2023-03-25T02:05:01;8.90;99.90
33837;DHT22;20140;49.356;8.812;2023-03-25T02:07:31;8.90;99.90
33837;DHT22;20140;49.356;8.812;2023-03-25T02:10:08;8.80;99.90
33837;DHT22;20140;49.356;8.812;2023-03-25T02:12:34;8.70;99.90
33837;DHT22;20140;49.356;8.812;2023-03-25T02:15:03;8.70;99.90
33837;DHT22;20140;49.356;8.812;2023-03-25T02:17:53;8.60;99.90
33837;DHT22;20140;49.356;8.812;2023-03-25T02:23:27;8.50;99.90
33837;DHT22;20140;49.356;8.812;2023-03-25T02:26:07;8.40;99.90
33837;DHT22;20140;49.356;8.812;2023-03-25T02:28:53;8.30;99.90
33837;DHT22;20140;49.356;8.812;2023-03-25T02:39:41;8.30;99.90
33837;DHT22;20140;49.356;8.812;2023-03-25T02:42:24;8.20;99.90
33837;DHT22;20140;49.356;8.812;2023-03-25T02:45:10;8.20;99.90
33837;DHT22;20140;49.356;8.812;2023-03-25T02:47:43;8.10;99.90
33837;DHT22;20140;49.356;8.812;2023-03-25T02:50:17;8.10;99.90
33837;DHT22;20140;49.356;8.812;2023-03-25T02:52:48;8.10;99.90
33837;DHT22;20140;49.356;8.812;2023-03-25T02:55:17;8.10;99.90
33837;DHT22;20140;49.356;8.812;2023-03-25T02:57:46;8.20;99.90
33837;DHT22;20140;49.356;8.812;2023-03-25T03:00:15;8.30;99.90
33837;DHT22;20140;49.356;8.812;2023-03-25T03:02:55;8.30;99.90
33837;DHT22;20140;49.356;8.812;2023-03-25T03:05:31;8.20;99.90
33837;DHT22;20140;49.356;8.812;2023-03-25T03:08:09;8.20;99.90
33837;DHT22;20140;49.356;8.812;2023-03-25T03:10:48;8.20;99.90
33837;DHT22;20140;49.356;8.812;2023-03-25T03:16:10;8.20;99.90
33837;DHT22;20140;49.356;8.812;2023-03-25T03:21:24;8.10;99.90
33837;DHT22;20140;49.356;8.812;2023-03-25T03:24:15;8.00;99.90
33837;DHT22;20140;49.356;8.812;2023-03-25T03:26:49;7.90;99.90
33837;DHT22;20140;49.356;8.812;2023-03-25T03:29:34;7.90;99.90
33837;DHT22;20140;49.356;8.812;2023-03-25T03:32:12;7.90;99.90
33837;DHT22;20140;49.356;8.812;2023-03-25T03:34:47;7.90;99.90
33837;DHT22;20140;49.356;8.812;2023-03-25T03:37:17;7.80;99.90
33837;DHT22;20140;49.356;8.812;2023-03-25T03:39:46;7.80;99.90
33837;DHT22;20140;49.356;8.812;2023-03-25T03:42:21;7.90;99.90
33837;DHT22;20140;49.356;8.812;2023-03-25T03:44:55;7.90;99.90
33837;DHT22;20140;49.356;8.812;2023-03-25T03:47:28;7.90;99.90
33837;DHT22;20140;49.356;8.812;2023-03-25T03:50:03;7.90;99.90
33837;DHT22;20140;49.356;8.812;2023-03-25T03:52:39;7.90;99.90
33837;DHT22;20140;49.356;8.812;2023-03-25T03:55:11;7.90;99.90
33837;DHT22;20140;49.356;8.812;2023-03-25T03:57:46;7.90;99.90
33837;DHT22;20140;49.356;8.812;2023-03-25T04:00:28;7.80;99.90
33837;DHT22;20140;49.356;8.812;2023-03-25T04:05:28;7.80;99.90
33837;DHT22;20140;49.356;8.812;2023-03-25T04:10:48;7.80;99.90
33837;DHT22;20140;49.356;8.812;2023-03-25T04:13:18;7.80;99.90
33837;DHT22;20140;49.356;8.812;2023-03-25T04:15:45;7.80;99.90
33837;DHT22;20140;49.356;8.812;2023-03-25T04:18:11;7.80;99.90
33837;DHT22;20140;49.356;8.812;2023-03-25T04:20:37;7.90;99.90
33837;DHT22;20140;49.356;8.812;2023-03-25T04:23:10;8.00;99.90
33837;DHT22;20140;49.356;8.812;2023-03-25T04:25:42;8.00;99.90
33837;DHT22;20140;49.356;8.812;2023-03-25T04:28:09;8.00;99.90
33837;DHT22;20140;49.356;8.812;2023-03-25T04:30:38;8.00;99.90
33837;DHT22;20140;49.356;8.812;2023-03-25T04:33:04;8.10;99.90
33837;DHT22;20140;49.356;8.812;2023-03-25T04:35:30;8.00;99.90
33837;DHT22;20140;49.356;8.812;2023-03-25T04:37:57;8.10;99.90
33837;DHT22;20140;49.356;8.812;2023-03-25T04:40:22;8.10;99.90
33837;DHT22;20140;49.356;8.812;2023-03-25T04:42:50;8.10;99.90
33837;DHT22;20140;49.356;8.812;2023-03-25T04:45:18;8.10;99.90
33837;DHT22;20140;49.356;8.812;2023-03-25T04:47:46;8.10;99.90
33837;DHT22;20140;49.356;8.812;2023-03-25T04:50:26;8.10;99.90
33837;DHT22;20140;49.356;8.812;2023-03-25T04:52:53;8.10;99.90
33837;DHT22;20140;49.356;8.812;2023-03-25T04:55:19;8.10;99.90
33837;DHT22;20140;49.356;8.812;2023-03-25T04:57:47;8.10;99.90
33837;DHT22;20140;49.356;8.812;2023-03-25T05:00:15;8.10;99.90
33837;DHT22;20140;49.356;8.812;2023-03-25T05:02:46;8.20;99.90
33837;DHT22;20140;49.356;8.812;2023-03-25T05:05:17;8.20;99.90
33837;DHT22;20140;49.356;8.812;2023-03-25T05:07:48;8.20;99.90
33837;DHT22;20140;49.356;8.812;2023-03-25T05:10:16;8.20;99.90
33837;DHT22;20140;49.356;8.812;2023-03-25T05:12:42;8.30;99.90
33837;DHT22;20140;49.356;8.812;2023-03-25T05:15:09;8.30;99.90
33837;DHT22;20140;49.356;8.812;2023-03-25T05:17:35;8.30;99.90
33837;DHT22;20140;49.356;8.812;2023-03-25T05:20:01;8.30;99.90
33837;DHT22;20140;49.356;8.812;2023-03-25T05:22:29;8.30;99.90
33837;DHT22;20140;49.356;8.812;2023-03-25T05:24:54;8.30;99.90
33837;DHT22;20140;49.356;8.812;2023-03-25T05:27:20;8.30;99.90
33837;DHT22;20140;49.356;8.812;2023-03-25T05:29:46;8.30;99.90
33837;DHT22;20140;49.356;8.812;2023-03-25T05:32:12;8.30;99.90
33837;DHT22;20140;49.356;8.812;2023-03-25T05:34:43;8.30;99.90
33837;DHT22;20140;49.356;8.812;2023-03-25T05:37:11;8.40;99.90
33837;DHT22;20140;49.356;8.812;2023-03-25T05:39:37;8.30;99.90
33837;DHT22;20140;49.356;8.812;2023-03-25T05:42:03;8.30;99.90
33837;DHT22;20140;49.356;8.812;2023-03-25T05:44:28;8.20;99.90
33837;DHT22;20140;49.356;8.812;2023-03-25T05:46:54;8.20;99.90
33837;DHT22;20140;49.356;8.812;2023-03-25T05:49:19;8.20;99.90
33837;DHT22;20140;49.356;8.812;2023-03-25T05:51:46;8.20;99.90
33837;DHT22;20140;49.356;8.812;2023-03-25T05:54:14;8.10;99.90
33837;DHT22;20140;49.356;8.812;2023-03-25T05:56:40;8.10;99.90
33837;DHT22;20140;49.356;8.812;2023-03-25T05:59:07;8.00;99.90
33837;DHT22;20140;49.356;8.812;2023-03-25T06:01:32;8.00;99.90
33837;DHT22;20140;49.356;8.812;2023-03-25T06:03:59;8.00;99.90
33837;DHT22;20140;49.356;8.812;2023-03-25T06:06:27;8.00;99.90
33837;DHT22;20140;49.356;8.812;2023-03-25T06:08:53;8.00;99.90
33837;DHT22;20140;49.356;8.812;2023-03-25T06:11:20;8.00;99.90
33837;DHT22;20140;49.356;8.812;2023-03-25T06:13:46;8.00;99.90
33837;DHT22;20140;49.356;8.812;2023-03-25T06:16:17;8.00;99.90
33837;DHT22;20140;49.356;8.812;2023-03-25T06:18:48;8.10;99.90
33837;DHT22;20140;49.356;8.812;2023-03-25T06:21:22;8.10;99.90
33837;DHT22;20140;49.356;8.812;2023-03-25T06:23:48;8.10;99.90
33837;DHT22;20140;49.356;8.812;2023-03-25T06:26:15;8.20;99.90
33837;DHT22;20140;49.356;8.812;2023-03-25T06:28:41;8.20;99.90
33837;DHT22;20140;49.356;8.812;2023-03-25T06:31:14;8.20;99.90
33837;DHT22;20140;49.356;8.812;2023-03-25T06:33:42;8.30;99.90
33837;DHT22;20140;49.356;8.812;2023-03-25T06:36:08;8.30;99.90
33837;DHT22;20140;49.356;8.812;2023-03-25T06:38:36;8.30;99.90
33837;DHT22;20140;49.356;8.812;2023-03-25T06:41:02;8.30;99.90
33837;DHT22;20140;49.356;8.812;2023-03-25T06:43:27;8.30;99.90
33837;DHT22;20140;49.356;8.812;2023-03-25T06:45:53;8.50;99.90
33837;DHT22;20140;49.356;8.812;2023-03-25T06:48:19;8.50;99.90
33837;DHT22;20140;49.356;8.812;2023-03-25T06:50:44;8.50;99.90
33837;DHT22;20140;49.356;8.812;2023-03-25T06:53:10;8.60;99.90
33837;DHT22;20140;49.356;8.812;2023-03-25T06:55:36;8.60;99.90
33837;DHT22;20140;49.356;8.812;2023-03-25T06:58:03;8.60;99.90
33837;DHT22;20140;49.356;8.812;2023-03-25T07:00:29;8.70;99.90
33837;DHT22;20140;49.356;8.812;2023-03-25T07:02:54;8.80;99.90
33837;DHT22;20140;49.356;8.812;2023-03-25T07:05:20;8.80;99.90
33837;DHT22;20140;49.356;8.812;2023-03-25T07:07:45;8.80;99.90
33837;DHT22;20140;49.356;8.812;2023-03-25T07:10:12;8.90;99.90
33837;DHT22;20140;49.356;8.812;2023-03-25T07:12:37;8.90;99.90
33837;DHT22;20140;49.356;8.812;2023-03-25T07:15:04;8.90;99.90
33837;DHT22;20140;49.356;8.812;2023-03-25T07:17:29;8.90;99.90
33837;DHT22;20140;49.356;8.812;2023-03-25T07:19:55;9.00;99.90
33837;DHT22;20140;49.356;8.812;2023-03-25T07:22:20;9.00;99.90
33837;DHT22;20140;49.356;8.812;2023-03-25T07:24:46;9.10;99.90
33837;DHT22;20140;49.356;8.812;2023-03-25T07:27:13;9.10;99.90
33837;DHT22;20140;49.356;8.812;2023-03-25T07:29:39;9.10;99.90
33837;DHT22;20140;49.356;8.812;2023-03-25T07:32:05;9.20;99.90
33837;DHT22;20140;49.356;8.812;2023-03-25T07:34:30;9.20;99.90
33837;DHT22;20140;49.356;8.812;2023-03-25T07:36:56;9.20;99.90
33837;DHT22;20140;49.356;8.812;2023-03-25T07:39:21;9.30;99.90
33837;DHT22;20140;49.356;8.812;2023-03-25T07:41:50;9.30;99.90
33837;DHT22;20140;49.356;8.812;2023-03-25T07:44:16;9.50;99.90
33837;DHT22;20140;49.356;8.812;2023-03-25T07:46:45;9.60;99.90
33837;DHT22;20140;49.356;8.812;2023-03-25T07:49:10;9.60;99.90
33837;DHT22;20140;49.356;8.812;2023-03-25T07:51:36;9.60;99.90
33837;DHT22;20140;49.356;8.812;2023-03-25T07:54:01;9.70;99.90
33837;DHT22;20140;49.356;8.812;2023-03-25T07:56:27;9.70;99.90
33837;DHT22;20140;49.356;8.812;2023-03-25T07:58:52;9.70;99.90
33837;DHT22;20140;49.356;8.812;2023-03-25T08:01:18;9.80;99.90
33837;DHT22;20140;49.356;8.812;2023-03-25T08:03:43;9.90;99.90
33837;DHT22;20140;49.356;8.812;2023-03-25T08:06:09;10.00;99.90
33837;DHT22;20140;49.356;8.812;2023-03-25T08:08:35;10.00;99.90
33837;DHT22;20140;49.356;8.812;2023-03-25T08:11:00;10.10;99.90
33837;DHT22;20140;49.356;8.812;2023-03-25T08:13:26;10.10;99.90
33837;DHT22;20140;49.356;8.812;2023-03-25T08:15:52;10.20;99.90
33837;DHT22;20140;49.356;8.812;2023-03-25T08:18:18;10.10;99.90
33837;DHT22;20140;49.356;8.812;2023-03-25T08:20:43;10.10;99.90
33837;DHT22;20140;49.356;8.812;2023-03-25T08:23:09;10.20;99.90
33837;DHT22;20140;49.356;8.812;2023-03-25T08:25:35;10.30;99.90
33837;DHT22;20140;49.356;8.812;2023-03-25T08:28:01;10.30;99.90
33837;DHT22;20140;49.356;8.812;2023-03-25T08:30:27;10.30;99.90
33837;DHT22;20140;49.356;8.812;2023-03-25T08:32:52;10.20;99.90
33837;DHT22;20140;49.356;8.812;2023-03-25T08:35:21;10.20;99.90
33837;DHT22;20140;49.356;8.812;2023-03-25T08:37:48;10.10;99.90
33837;DHT22;20140;49.356;8.812;2023-03-25T08:40:14;10.20;99.90
33837;DHT22;20140;49.356;8.812;2023-03-25T08:42:41;10.20;99.90
33837;DHT22;20140;49.356;8.812;2023-03-25T08:45:08;10.00;99.90
33837;DHT22;20140;49.356;8.812;2023-03-25T08:47:34;10.10;99.90
33837;DHT22;20140;49.356;8.812;2023-03-25T08:49:59;10.10;99.90
33837;DHT22;20140;49.356;8.812;2023-03-25T08:52:25;9.90;99.90
33837;DHT22;20140;49.356;8.812;2023-03-25T08:54:51;9.80;99.90
33837;DHT22;20140;49.356;8.812;2023-03-25T08:57:16;9.90;99.90
33837;DHT22;20140;49.356;8.812;2023-03-25T08:59:42;9.80;99.90
33837;DHT22;20140;49.356;8.812;2023-03-25T09:02:10;9.80;99.90
33837;DHT22;20140;49.356;8.812;2023-03-25T09:04:36;9.70;99.90
33837;DHT22;20140;49.356;8.812;2023-03-25T09:07:04;9.50;99.90
33837;DHT22;20140;49.356;8.812;2023-03-25T09:09:31;9.50;99.90
33837;DHT22;20140;49.356;8.812;2023-03-25T09:11:57;9.60;99.90
33837;DHT22;20140;49.356;8.812;2023-03-25T09:14:22;9.60;99.90
33837;DHT22;20140;49.356;8.812;2023-03-25T09:16:48;9.60;99.90
33837;DHT22;20140;49.356;8.812;2023-03-25T09:19:13;9.50;99.90
33837;DHT22;20140;49.356;8.812;2023-03-25T09:21:39;9.50;99.90
33837;DHT22;20140;49.356;8.812;2023-03-25T09:24:07;9.50;99.90
33837;DHT22;20140;49.356;8.812;2023-03-25T09:26:33;9.40;99.90
33837;DHT22;20140;49.356;8.812;2023-03-25T09:28:59;9.70;99.90
33837;DHT22;20140;49.356;8.812;2023-03-25T09:31:25;9.70;99.90
33837;DHT22;20140;49.356;8.812;2023-03-25T09:33:50;9.80;99.90
33837;DHT22;20140;49.356;8.812;2023-03-25T09:36:16;9.80;99.90
33837;DHT22;20140;49.356;8.812;2023-03-25T09:38:41;9.80;99.90
33837;DHT22;20140;49.356;8.812;2023-03-25T09:46:52;10.30;99.90
33837;DHT22;20140;49.356;8.812;2023-03-25T09:49:24;10.30;99.90
33837;DHT22;20140;49.356;8.812;2023-03-25T09:51:52;10.00;99.90
33837;DHT22;20140;49.356;8.812;2023-03-25T09:54:28;10.00;99.90
33837;DHT22;20140;49.356;8.812;2023-03-25T09:56:58;9.90;99.90
33837;DHT22;20140;49.356;8.812;2023-03-25T09:59:43;9.90;99.90
33837;DHT22;20140;49.356;8.812;2023-03-25T10:02:39;9.80;99.90
33837;DHT22;20140;49.356;8.812;2023-03-25T10:05:18;9.90;99.90
33837;DHT22;20140;49.356;8.812;2023-03-25T10:08:01;10.00;99.90
33837;DHT22;20140;49.356;8.812;2023-03-25T10:13:34;9.90;99.90
33837;DHT22;20140;49.356;8.812;2023-03-25T10:19:12;9.80;99.90
33837;DHT22;20140;49.356;8.812;2023-03-25T10:21:49;9.90;99.90
33837;DHT22;20140;49.356;8.812;2023-03-25T10:24:21;10.00;99.90
33837;DHT22;20140;49.356;8.812;2023-03-25T10:27:12;10.00;99.90
33837;DHT22;20140;49.356;8.812;2023-03-25T10:29:50;10.10;99.90
33837;DHT22;20140;49.356;8.812;2023-03-25T10:32:24;10.20;99.90
33837;DHT22;20140;49.356;8.812;2023-03-25T10:34:55;10.20;99.90
33837;DHT22;20140;49.356;8.812;2023-03-25T10:37:28;10.30;99.90
33837;DHT22;20140;49.356;8.812;2023-03-25T10:40:15;10.30;99.90
33837;DHT22;20140;49.356;8.812;2023-03-25T10:43:10;10.30;99.90
33837;DHT22;20140;49.356;8.812;2023-03-25T10:45:38;10.30;99.90
33837;DHT22;20140;49.356;8.812;2023-03-25T10:48:18;10.40;99.90
33837;DHT22;20140;49.356;8.812;2023-03-25T10:50:46;10.40;99.90
33837;DHT22;20140;49.356;8.812;2023-03-25T10:53:23;10.60;99.90
33837;DHT22;20140;49.356;8.812;2023-03-25T10:55:59;11.00;99.90
33837;DHT22;20140;49.356;8.812;2023-03-25T10:58:26;11.20;99.90
33837;DHT22;20140;49.356;8.812;2023-03-25T11:00:52;11.10;99.90
33837;DHT22;20140;49.356;8.812;2023-03-25T11:03:32;11.20;99.90
33837;DHT22;20140;49.356;8.812;2023-03-25T11:05:58;11.20;99.90
33837;DHT22;20140;49.356;8.812;2023-03-25T11:08:24;11.20;99.90
33837;DHT22;20140;49.356;8.812;2023-03-25T11:10:52;11.20;99.90
33837;DHT22;20140;49.356;8.812;2023-03-25T11:13:29;11.10;99.90
33837;DHT22;20140;49.356;8.812;2023-03-25T11:15:57;10.90;99.90
33837;DHT22;20140;49.356;8.812;2023-03-25T11:18:37;10.80;99.90
33837;DHT22;20140;49.356;8.812;2023-03-25T11:21:13;10.60;99.90
33837;DHT22;20140;49.356;8.812;2023-03-25T11:23:45;10.10;99.90
33837;DHT22;20140;49.356;8.812;2023-03-25T11:26:18;9.70;99.90
33837;DHT22;20140;49.356;8.812;2023-03-25T11:28:49;9.60;99.90
33837;DHT22;20140;49.356;8.812;2023-03-25T11:31:22;9.60;99.90
33837;DHT22;20140;49.356;8.812;2023-03-25T11:39:33;9.80;99.90
33837;DHT22;20140;49.356;8.812;2023-03-25T11:44:33;9.90;99.90
33837;DHT22;20140;49.356;8.812;2023-03-25T11:47:03;10.00;99.90
33837;DHT22;20140;49.356;8.812;2023-03-25T11:49:33;10.10;99.90
33837;DHT22;20140;49.356;8.812;2023-03-25T11:52:08;10.20;99.90
33837;DHT22;20140;49.356;8.812;2023-03-25T11:54:36;10.30;99.90
33837;DHT22;20140;49.356;8.812;2023-03-25T11:57:05;10.20;99.90
33837;DHT22;20140;49.356;8.812;2023-03-25T11:59:38;10.10;99.90
33837;DHT22;20140;49.356;8.812;2023-03-25T12:02:22;9.70;99.90
33837;DHT22;20140;49.356;8.812;2023-03-25T12:04:58;8.80;99.90
33837;DHT22;20140;49.356;8.812;2023-03-25T12:07:25;8.60;99.90
33837;DHT22;20140;49.356;8.812;2023-03-25T12:09:55;8.40;99.90
33837;DHT22;20140;49.356;8.812;2023-03-25T12:12:39;8.40;99.90
33837;DHT22;20140;49.356;8.812;2023-03-25T12:23:54;9.10;99.90
33837;DHT22;20140;49.356;8.812;2023-03-25T12:26:39;9.30;99.90
33837;DHT22;20140;49.356;8.812;2023-03-25T12:32:18;9.70;99.90
33837;DHT22;20140;49.356;8.812;2023-03-25T12:35:10;9.90;99.90
33837;DHT22;20140;49.356;8.812;2023-03-25T12:38:08;10.20;99.90
33837;DHT22;20140;49.356;8.812;2023-03-25T12:40:49;10.50;99.90
33837;DHT22;20140;49.356;8.812;2023-03-25T12:43:29;10.80;99.90
33837;DHT22;20140;49.356;8.812;2023-03-25T12:46:11;10.90;99.90
33837;DHT22;20140;49.356;8.812;2023-03-25T12:51:26;10.70;99.90
33837;DHT22;20140;49.356;8.812;2023-03-25T13:11:20;10.60;99.90
33837;DHT22;20140;49.356;8.812;2023-03-25T13:13:49;10.90;99.90
33837;DHT22;20140;49.356;8.812;2023-03-25T13:16:21;10.90;99.90
33837;DHT22;20140;49.356;8.812;2023-03-25T13:18:54;10.90;99.90
33837;DHT22;20140;49.356;8.812;2023-03-25T13:21:25;10.80;99.90
33837;DHT22;20140;49.356;8.812;2023-03-25T13:24:05;10.90;99.90
33837;DHT22;20140;49.356;8.812;2023-03-25T13:26:34;11.00;99.90
33837;DHT22;20140;49.356;8.812;2023-03-25T13:29:03;11.20;99.90
33837;DHT22;20140;49.356;8.812;2023-03-25T13:31:39;11.30;99.90
33837;DHT22;20140;49.356;8.812;2023-03-25T13:34:27;11.60;99.90
33837;DHT22;20140;49.356;8.812;2023-03-25T13:37:16;11.70;99.90
33837;DHT22;20140;49.356;8.812;2023-03-25T13:42:36;12.50;99.90
33837;DHT22;20140;49.356;8.812;2023-03-25T13:45:13;12.40;99.90
33837;DHT22;20140;49.356;8.812;2023-03-25T13:47:59;12.30;99.90
33837;DHT22;20140;49.356;8.812;2023-03-25T13:50:30;12.90;99.90
33837;DHT22;20140;49.356;8.812;2023-03-25T13:53:31;13.50;99.90
33837;DHT22;20140;49.356;8.812;2023-03-25T13:58:53;13.50;99.90
33837;DHT22;20140;49.356;8.812;2023-03-25T14:04:43;12.90;99.90
33837;DHT22;20140;49.356;8.812;2023-03-25T14:12:53;13.60;99.90
33837;DHT22;20140;49.356;8.812;2023-03-25T14:15:35;14.30;99.90
33837;DHT22;20140;49.356;8.812;2023-03-25T14:18:03;14.50;99.90
33837;DHT22;20140;49.356;8.812;2023-03-25T14:20:33;14.10;99.90
33837;DHT22;20140;49.356;8.812;2023-03-25T14:23:06;14.90;99.90
33837;DHT22;20140;49.356;8.812;2023-03-25T14:25:39;15.00;99.90
33837;DHT22;20140;49.356;8.812;2023-03-25T14:28:07;14.70;98.80
33837;DHT22;20140;49.356;8.812;2023-03-25T14:30:34;14.60;99.90
33837;DHT22;20140;49.356;8.812;2023-03-25T14:33:00;14.70;99.90
33837;DHT22;20140;49.356;8.812;2023-03-25T14:43:35;14.70;99.90
33837;DHT22;20140;49.356;8.812;2023-03-25T14:46:13;15.50;99.90
33837;DHT22;20140;49.356;8.812;2023-03-25T14:48:50;15.60;99.90
33837;DHT22;20140;49.356;8.812;2023-03-25T14:51:41;14.60;99.90
33837;DHT22;20140;49.356;8.812;2023-03-25T14:54:16;14.90;99.90
33837;DHT22;20140;49.356;8.812;2023-03-25T14:56:56;14.10;99.90
33837;DHT22;20140;49.356;8.812;2023-03-25T14:59:29;13.50;99.90
33837;DHT22;20140;49.356;8.812;2023-03-25T15:02:01;14.00;99.90
33837;DHT22;20140;49.356;8.812;2023-03-25T15:04:33;14.80;99.90
33837;DHT22;20140;49.356;8.812;2023-03-25T15:07:02;14.20;99.90
33837;DHT22;20140;49.356;8.812;2023-03-25T15:09:29;14.30;99.90
33837;DHT22;20140;49.356;8.812;2023-03-25T15:12:02;14.00;99.90
33837;DHT22;20140;49.356;8.812;2023-03-25T15:14:40;13.50;99.90
33837;DHT22;20140;49.356;8.812;2023-03-25T15:17:11;13.90;99.90
33837;DHT22;20140;49.356;8.812;2023-03-25T15:22:33;15.40;99.90
33837;DHT22;20140;49.356;8.812;2023-03-25T15:25:00;15.60;97.90
33837;DHT22;20140;49.356;8.812;2023-03-25T15:27:39;15.70;97.60
33837;DHT22;20140;49.356;8.812;2023-03-25T15:35:48;15.40;98.70
33837;DHT22;20140;49.356;8.812;2023-03-25T15:41:13;14.10;98.90
33837;DHT22;20140;49.356;8.812;2023-03-25T15:43:49;14.20;98.80
33837;DHT22;20140;49.356;8.812;2023-03-25T15:46:46;14.20;99.90
33837;DHT22;20140;49.356;8.812;2023-03-25T15:54:31;15.00;98.60
33837;DHT22;20140;49.356;8.812;2023-03-25T15:57:02;14.90;98.00
33837;DHT22;20140;49.356;8.812;2023-03-25T15:59:43;15.40;98.20
33837;DHT22;20140;49.356;8.812;2023-03-25T16:02:15;15.70;97.70
33837;DHT22;20140;49.356;8.812;2023-03-25T16:04:42;15.90;98.50
33837;DHT22;20140;49.356;8.812;2023-03-25T16:07:11;15.70;98.60
33837;DHT22;20140;49.356;8.812;2023-03-25T16:09:39;15.50;98.20
33837;DHT22;20140;49.356;8.812;2023-03-25T16:12:09;15.30;96.00
33837;DHT22;20140;49.356;8.812;2023-03-25T16:14:35;14.70;97.50
33837;DHT22;20140;49.356;8.812;2023-03-25T16:17:02;14.30;98.30
33837;DHT22;20140;49.356;8.812;2023-03-25T16:19:41;14.00;96.50
33837;DHT22;20140;49.356;8.812;2023-03-25T16:22:31;13.80;97.40
33837;DHT22;20140;49.356;8.812;2023-03-25T16:24:58;13.60;98.00
33837;DHT22;20140;49.356;8.812;2023-03-25T16:27:28;13.60;98.80
33837;DHT22;20140;49.356;8.812;2023-03-25T16:29:54;13.50;98.40
33837;DHT22;20140;49.356;8.812;2023-03-25T16:32:21;13.50;98.60
33837;DHT22;20140;49.356;8.812;2023-03-25T16:34:47;13.50;98.60
33837;DHT22;20140;49.356;8.812;2023-03-25T16:37:13;13.40;99.80
33837;DHT22;20140;49.356;8.812;2023-03-25T16:39:38;13.30;99.50
33837;DHT22;20140;49.356;8.812;2023-03-25T16:42:12;13.20;99.90
33837;DHT22;20140;49.356;8.812;2023-03-25T16:44:46;13.20;99.40
33837;DHT22;20140;49.356;8.812;2023-03-25T16:47:13;13.20;99.90
33837;DHT22;20140;49.356;8.812;2023-03-25T16:49:40;13.10;99.90
33837;DHT22;20140;49.356;8.812;2023-03-25T16:52:09;13.10;99.90
33837;DHT22;20140;49.356;8.812;2023-03-25T16:57:16;13.20;99.90
33837;DHT22;20140;49.356;8.812;2023-03-25T16:59:45;13.10;99.90
33837;DHT22;20140;49.356;8.812;2023-03-25T17:02:24;13.10;99.90
33837;DHT22;20140;49.356;8.812;2023-03-25T17:04:50;13.00;99.90
33837;DHT22;20140;49.356;8.812;2023-03-25T17:07:25;12.90;99.90
33837;DHT22;20140;49.356;8.812;2023-03-25T17:09:54;12.80;99.90
33837;DHT22;20140;49.356;8.812;2023-03-25T17:12:23;12.70;99.90
33837;DHT22;20140;49.356;8.812;2023-03-25T17:14:51;12.70;99.90
33837;DHT22;20140;49.356;8.812;2023-03-25T17:17:39;12.60;99.90
33837;DHT22;20140;49.356;8.812;2023-03-25T17:20:14;12.60;99.90
33837;DHT22;20140;49.356;8.812;2023-03-25T17:22:56;12.60;99.90
33837;DHT22;20140;49.356;8.812;2023-03-25T17:25:30;12.60;99.90
33837;DHT22;20140;49.356;8.812;2023-03-25T17:28:03;12.60;99.90
33837;DHT22;20140;49.356;8.812;2023-03-25T17:30:40;12.60;99.90
33837;DHT22;20140;49.356;8.812;2023-03-25T17:35:37;12.60;99.90
33837;DHT22;20140;49.356;8.812;2023-03-25T17:38:03;12.60;99.90
33837;DHT22;20140;49.356;8.812;2023-03-25T17:40:29;12.60;99.90
33837;DHT22;20140;49.356;8.812;2023-03-25T17:42:56;12.60;99.90
33837;DHT22;20140;49.356;8.812;2023-03-25T17:45:23;12.50;99.90
33837;DHT22;20140;49.356;8.812;2023-03-25T17:47:50;12.50;99.90
33837;DHT22;20140;49.356;8.812;2023-03-25T17:52:43;12.40;99.90
33837;DHT22;20140;49.356;8.812;2023-03-25T17:55:09;12.50;99.90
33837;DHT22;20140;49.356;8.812;2023-03-25T17:57:35;12.60;99.90
33837;DHT22;20140;49.356;8.812;2023-03-25T18:00:01;12.60;99.90
33837;DHT22;20140;49.356;8.812;2023-03-25T18:02:26;12.60;99.90
33837;DHT22;20140;49.356;8.812;2023-03-25T18:04:52;12.50;99.90